createdAt,value
2018-12-12T00:02:18.589Z,9.30
2018-12-12T00:04:44.592Z,10.90
2018-12-12T00:07:10.626Z,10.20
2018-12-12T00:09:36.631Z,9.57
2018-12-12T00:12:02.631Z,11.67
2018-12-12T00:14:28.618Z,11.03
2018-12-12T00:16:54.632Z,10.83
2018-12-12T00:19:20.607Z,11.50
2018-12-12T00:21:46.595Z,12.03
2018-12-12T00:24:12.583Z,12.57
2018-12-12T00:26:38.579Z,11.97
2018-12-12T00:29:04.605Z,12.67
2018-12-12T00:31:30.623Z,10.97
2018-12-12T00:33:56.608Z,12.30
2018-12-12T00:36:22.579Z,12.17
2018-12-12T00:38:48.591Z,11.50
2018-12-12T00:41:14.586Z,11.23
2018-12-12T00:43:40.582Z,11.33
2018-12-12T00:46:06.631Z,12.73
2018-12-12T00:48:32.635Z,12.70
2018-12-12T00:50:58.643Z,12.70
2018-12-12T00:53:24.640Z,12.03
2018-12-12T00:55:50.625Z,11.90
2018-12-12T00:58:16.620Z,12.50
2018-12-12T01:00:42.603Z,11.90
2018-12-12T01:03:08.647Z,12.30
2018-12-12T01:05:34.635Z,13.63
2018-12-12T01:08:00.646Z,13.03
2018-12-12T01:10:26.645Z,12.73
2018-12-12T01:12:52.645Z,14.97
2018-12-12T01:15:18.637Z,14.00
2018-12-12T01:17:44.630Z,13.17
2018-12-12T01:20:10.627Z,13.20
2018-12-12T01:22:36.622Z,13.20
2018-12-12T01:25:02.611Z,16.00
2018-12-12T01:27:28.651Z,13.10
2018-12-12T01:29:54.626Z,13.57
2018-12-12T01:32:20.624Z,14.50
2018-12-12T01:34:46.651Z,14.83
2018-12-12T01:37:12.638Z,13.73
2018-12-12T01:39:38.626Z,14.27
2018-12-12T01:42:04.653Z,14.77
2018-12-12T01:44:30.641Z,13.83
2018-12-12T01:46:56.636Z,14.50
2018-12-12T01:49:22.628Z,13.17
2018-12-12T01:51:48.607Z,14.30
2018-12-12T01:54:14.599Z,13.43
2018-12-12T01:56:40.570Z,14.20
2018-12-12T01:59:06.543Z,13.90
2018-12-12T02:01:32.521Z,12.63
2018-12-12T02:03:58.518Z,14.17
2018-12-12T02:06:24.523Z,15.70
2018-12-12T02:08:50.554Z,14.30
2018-12-12T02:11:16.569Z,15.23
2018-12-12T02:13:42.587Z,14.40
2018-12-12T02:16:08.582Z,16.13
2018-12-12T02:18:34.591Z,16.03
2018-12-12T02:21:00.579Z,16.03
2018-12-12T02:23:26.594Z,16.00
2018-12-12T02:25:52.578Z,15.47
2018-12-12T02:28:18.566Z,14.77
2018-12-12T02:30:44.571Z,15.80
2018-12-12T02:33:10.567Z,14.30
2018-12-12T02:35:36.555Z,15.27
2018-12-12T02:38:02.578Z,15.27
2018-12-12T02:40:28.556Z,14.77
2018-12-12T02:42:54.566Z,14.50
2018-12-12T02:45:20.598Z,14.17
2018-12-12T02:47:46.622Z,15.97
2018-12-12T02:50:12.635Z,13.00
2018-12-12T02:52:38.617Z,15.23
2018-12-12T02:55:04.599Z,14.70
2018-12-12T02:57:30.596Z,15.33
2018-12-12T02:59:56.598Z,15.80
2018-12-12T03:02:22.607Z,14.87
2018-12-12T03:04:48.619Z,15.40
2018-12-12T03:07:14.615Z,16.20
2018-12-12T03:09:40.619Z,16.20
2018-12-12T03:12:06.625Z,16.07
2018-12-12T03:14:32.619Z,15.03
2018-12-12T03:16:58.610Z,18.80
2018-12-12T03:19:34.715Z,18.27
2018-12-12T03:22:00.709Z,15.83
2018-12-12T03:24:26.702Z,16.43
2018-12-12T03:26:52.687Z,15.93
2018-12-12T03:29:18.682Z,13.77
2018-12-12T03:31:44.678Z,15.10
2018-12-12T03:34:10.865Z,15.40
2018-12-12T03:36:36.862Z,16.23
2018-12-12T03:39:02.856Z,15.07
2018-12-12T03:41:28.858Z,15.03
2018-12-12T03:43:54.827Z,16.17
2018-12-12T03:46:20.800Z,15.47
2018-12-12T03:48:46.793Z,14.87
2018-12-12T03:51:12.795Z,16.33
2018-12-12T03:53:38.787Z,15.23
2018-12-12T03:56:04.814Z,15.33
2018-12-12T03:58:37.651Z,15.10
2018-12-12T04:01:03.665Z,15.10
2018-12-12T04:03:29.643Z,15.70
2018-12-12T04:05:55.643Z,15.23
2018-12-12T04:08:21.622Z,15.17
2018-12-12T04:10:47.600Z,17.83
2018-12-12T04:13:13.595Z,17.50
2018-12-12T04:15:39.603Z,17.17
2018-12-12T04:18:05.627Z,17.47
2018-12-12T04:20:31.621Z,15.27
2018-12-12T04:22:57.672Z,15.70
2018-12-12T04:25:23.649Z,16.23
2018-12-12T04:27:49.652Z,16.77
2018-12-12T04:30:15.647Z,17.37
2018-12-12T04:32:41.652Z,19.00
2018-12-12T04:35:07.634Z,16.20
2018-12-12T04:37:33.617Z,15.47
2018-12-12T04:39:59.643Z,17.50
2018-12-12T04:42:25.630Z,15.80
2018-12-12T04:44:51.623Z,15.70
2018-12-12T04:47:17.617Z,14.07
2018-12-12T04:49:43.595Z,17.10
2018-12-12T04:52:09.580Z,15.77
2018-12-12T04:54:35.591Z,15.90
2018-12-12T04:57:01.567Z,16.00
2018-12-12T04:59:27.562Z,16.67
2018-12-12T05:01:53.571Z,15.50
2018-12-12T05:04:19.550Z,16.07
2018-12-12T05:06:45.539Z,14.53
2018-12-12T05:09:11.536Z,16.87
2018-12-12T05:11:37.546Z,19.10
2018-12-12T05:14:03.567Z,16.47
2018-12-12T05:16:29.561Z,16.40
2018-12-12T05:18:55.547Z,15.50
2018-12-12T05:21:21.539Z,16.10
2018-12-12T05:23:47.555Z,15.87
2018-12-12T05:26:13.537Z,15.27
2018-12-12T05:28:39.529Z,16.43
2018-12-12T05:31:05.555Z,13.77
2018-12-12T05:33:31.535Z,13.17
2018-12-12T05:35:57.805Z,12.83
2018-12-12T05:38:38.774Z,13.80
2018-12-12T05:41:04.761Z,12.97
2018-12-12T05:43:30.748Z,12.80
2018-12-12T05:45:56.731Z,13.70
2018-12-12T05:48:22.752Z,13.03
2018-12-12T05:50:48.742Z,11.90
2018-12-12T05:53:14.731Z,11.87
2018-12-12T05:55:40.698Z,12.77
2018-12-12T05:58:06.680Z,9.73
2018-12-12T06:00:32.690Z,10.07
2018-12-12T06:02:58.687Z,8.83
2018-12-12T06:05:24.716Z,9.13
2018-12-12T06:07:50.699Z,8.80
2018-12-12T06:10:16.703Z,8.73
2018-12-12T06:12:42.721Z,8.77
2018-12-12T06:15:08.699Z,8.30
2018-12-12T06:17:34.674Z,8.90
2018-12-12T06:20:00.692Z,7.53
2018-12-12T06:22:26.682Z,7.30
2018-12-12T06:24:52.659Z,8.67
2018-12-12T06:27:18.649Z,11.20
2018-12-12T06:29:44.647Z,11.20
2018-12-12T06:32:10.639Z,9.53
2018-12-12T06:34:36.718Z,9.30
2018-12-12T06:37:02.706Z,8.20
2018-12-12T06:39:28.687Z,6.20
2018-12-12T06:41:54.724Z,7.97
2018-12-12T06:44:20.771Z,7.30
2018-12-12T06:46:46.758Z,7.40
2018-12-12T06:49:12.785Z,6.50
2018-12-12T06:51:38.839Z,6.53
2018-12-12T06:54:04.818Z,6.90
2018-12-12T06:56:30.807Z,6.80
2018-12-12T06:58:56.801Z,5.70
2018-12-12T07:01:22.794Z,5.67
2018-12-12T07:03:48.791Z,5.13
2018-12-12T07:06:14.796Z,6.03
2018-12-12T07:08:40.790Z,6.33
2018-12-12T07:11:06.778Z,5.33
2018-12-12T07:13:35.712Z,5.13
2018-12-12T07:15:58.799Z,5.93
2018-12-12T07:18:24.786Z,6.23
2018-12-12T07:20:50.794Z,6.37
2018-12-12T07:23:16.798Z,6.10
2018-12-12T07:25:42.789Z,4.67
2018-12-12T07:28:08.775Z,5.43
2018-12-12T07:30:34.786Z,5.03
2018-12-12T07:33:00.882Z,5.30
2018-12-12T07:35:26.865Z,5.90
2018-12-12T07:37:52.866Z,5.87
2018-12-12T07:40:18.866Z,5.40
2018-12-12T07:42:44.856Z,5.70
2018-12-12T07:45:10.859Z,6.20
2018-12-12T07:47:36.844Z,5.60
2018-12-12T07:50:02.813Z,6.30
2018-12-12T07:52:28.802Z,5.50
2018-12-12T07:54:54.798Z,6.17
2018-12-12T07:57:20.783Z,5.80
2018-12-12T07:59:46.782Z,6.50
2018-12-12T08:02:12.874Z,7.17
2018-12-12T08:04:38.847Z,5.33
2018-12-12T08:07:04.870Z,6.80
2018-12-12T08:09:30.841Z,5.30
2018-12-12T08:11:56.858Z,5.30
2018-12-12T08:14:22.881Z,5.83
2018-12-12T08:16:48.869Z,5.30
2018-12-12T08:19:14.842Z,7.47
2018-12-12T08:21:40.886Z,4.47
2018-12-12T08:24:06.862Z,6.57
2018-12-12T08:26:32.867Z,6.00
2018-12-12T08:28:58.858Z,5.40
2018-12-12T08:31:24.838Z,5.57
2018-12-12T08:33:50.888Z,5.33
2018-12-12T08:36:16.890Z,5.57
2018-12-12T08:38:42.895Z,6.43
2018-12-12T08:41:08.883Z,5.67
2018-12-12T08:43:34.908Z,5.60
2018-12-12T08:46:00.906Z,6.13
2018-12-12T08:48:26.878Z,6.70
2018-12-12T08:50:52.915Z,6.23
2018-12-12T08:53:18.898Z,7.27
2018-12-12T08:55:44.910Z,6.73
2018-12-12T08:58:10.918Z,7.73
2018-12-12T09:00:36.923Z,7.07
2018-12-12T09:03:02.910Z,7.07
2018-12-12T09:05:28.931Z,7.80
2018-12-12T09:07:54.928Z,8.37
2018-12-12T09:10:20.934Z,7.77
2018-12-12T09:12:46.985Z,7.30
2018-12-12T09:15:12.969Z,8.37
2018-12-12T09:17:38.943Z,7.87
2018-12-12T09:20:04.950Z,8.23
2018-12-12T09:22:30.934Z,8.63
2018-12-12T09:24:56.904Z,7.83
2018-12-12T09:27:22.904Z,8.70
2018-12-12T09:29:48.889Z,8.90
2018-12-12T09:32:14.905Z,10.40
2018-12-12T09:34:40.901Z,8.23
2018-12-12T09:37:06.878Z,8.20
2018-12-12T09:39:32.860Z,7.63
2018-12-12T09:41:58.871Z,9.10
2018-12-12T09:44:24.866Z,11.00
2018-12-12T09:46:50.834Z,9.83
2018-12-12T09:49:16.825Z,10.83
2018-12-12T09:51:42.806Z,8.43
2018-12-12T09:54:08.858Z,13.80
2018-12-12T09:56:34.850Z,10.93
2018-12-12T09:59:00.834Z,9.70
2018-12-12T10:01:26.842Z,10.20
2018-12-12T10:03:52.829Z,12.20
2018-12-12T10:06:18.814Z,8.90
2018-12-12T10:08:44.966Z,8.57
2018-12-12T10:11:10.945Z,8.30
2018-12-12T10:13:36.937Z,9.10
2018-12-12T10:16:02.941Z,7.73
2018-12-12T10:18:29.007Z,7.80
2018-12-12T10:20:54.990Z,8.67
2018-12-12T10:23:21.002Z,10.07
2018-12-12T10:25:46.996Z,12.07
2018-12-12T10:28:12.979Z,14.87
2018-12-12T10:30:38.972Z,13.23
2018-12-12T10:33:04.955Z,11.73
2018-12-12T10:35:30.950Z,8.10
2018-12-12T10:37:56.963Z,10.60
2018-12-12T10:40:22.936Z,10.53
2018-12-12T10:42:48.910Z,9.57
2018-12-12T10:45:14.913Z,8.53
2018-12-12T10:47:40.934Z,9.60
2018-12-12T10:50:06.925Z,10.07
2018-12-12T10:52:32.942Z,10.00
2018-12-12T10:54:58.918Z,7.90
2018-12-12T10:57:24.891Z,10.30
2018-12-12T10:59:50.915Z,9.83
2018-12-12T11:02:23.207Z,9.50
2018-12-12T11:04:49.211Z,8.80
2018-12-12T11:07:15.205Z,8.70
2018-12-12T11:09:41.214Z,8.50
2018-12-12T11:12:07.196Z,8.80
2018-12-12T11:14:33.183Z,9.20
2018-12-12T11:16:59.183Z,8.60
2018-12-12T11:19:25.193Z,9.40
2018-12-12T11:21:51.180Z,8.97
2018-12-12T11:24:17.190Z,9.77
2018-12-12T11:26:43.218Z,8.87
2018-12-12T11:29:09.227Z,10.67
2018-12-12T11:31:35.214Z,12.07
2018-12-12T11:34:01.197Z,9.50
2018-12-12T11:36:27.169Z,9.60
2018-12-12T11:38:53.142Z,9.20
2018-12-12T11:41:19.134Z,10.40
2018-12-12T11:43:45.138Z,8.97
2018-12-12T11:46:11.110Z,9.30
2018-12-12T11:48:37.097Z,10.53
2018-12-12T11:51:03.074Z,9.57
2018-12-12T11:53:29.038Z,9.10
2018-12-12T11:55:55.055Z,9.67
2018-12-12T11:58:21.038Z,11.20
2018-12-12T12:00:47.026Z,9.77
2018-12-12T12:03:13.051Z,8.90
2018-12-12T12:05:39.044Z,9.57
2018-12-12T12:08:05.046Z,8.50
2018-12-12T12:10:31.079Z,8.60
2018-12-12T12:12:57.091Z,8.90
2018-12-12T12:15:23.082Z,8.90
2018-12-12T12:17:49.074Z,8.30
2018-12-12T12:20:15.066Z,8.83
2018-12-12T12:22:41.070Z,8.40
2018-12-12T12:25:07.064Z,8.93
2018-12-12T12:27:33.043Z,9.60
2018-12-12T12:29:59.030Z,7.67
2018-12-12T12:32:25.026Z,8.10
2018-12-12T12:34:51.030Z,9.00
2018-12-12T12:37:17.023Z,10.70
2018-12-12T12:39:43.004Z,10.33
2018-12-12T12:42:08.995Z,9.20
2018-12-12T12:44:34.986Z,8.70
2018-12-12T12:47:00.978Z,7.83
2018-12-12T12:49:26.987Z,8.47
2018-12-12T12:51:52.980Z,9.60
2018-12-12T12:54:18.978Z,9.10
2018-12-12T12:56:45.288Z,10.27
2018-12-12T12:59:11.282Z,8.57
2018-12-12T13:01:37.273Z,9.80
2018-12-12T13:04:09.486Z,7.90
2018-12-12T13:06:29.318Z,7.40
2018-12-12T13:08:55.298Z,9.20
2018-12-12T13:11:21.298Z,7.83
2018-12-12T13:13:47.313Z,8.43
2018-12-12T13:16:13.327Z,9.27
2018-12-12T13:18:54.295Z,9.33
2018-12-12T13:21:20.289Z,9.50
2018-12-12T13:23:46.286Z,9.23
2018-12-12T13:26:12.331Z,7.33
2018-12-12T13:28:38.317Z,8.47
2018-12-12T13:31:04.423Z,8.07
2018-12-12T13:33:30.410Z,7.10
2018-12-12T13:35:56.384Z,7.60
2018-12-12T13:38:22.395Z,7.50
2018-12-12T13:40:48.426Z,8.27
2018-12-12T13:43:14.420Z,8.40
2018-12-12T13:45:40.413Z,8.60
2018-12-12T13:48:06.390Z,9.93
2018-12-12T13:50:32.721Z,9.43
2018-12-12T13:52:58.755Z,9.90
2018-12-12T13:55:24.775Z,8.77
2018-12-12T13:57:50.822Z,8.17
2018-12-12T14:00:16.811Z,7.60
2018-12-12T14:02:42.834Z,6.50
2018-12-12T14:05:08.814Z,7.00
2018-12-12T14:07:34.821Z,7.63
2018-12-12T14:10:00.906Z,7.17
2018-12-12T14:12:26.889Z,7.03
2018-12-12T14:14:52.870Z,6.17
2018-12-12T14:17:18.862Z,6.70
2018-12-12T14:19:44.851Z,7.60
2018-12-12T14:22:10.883Z,7.00
2018-12-12T14:24:36.931Z,7.30
2018-12-12T14:27:03.011Z,7.20
2018-12-12T14:29:29.017Z,8.27
2018-12-12T14:31:55.041Z,8.40
2018-12-12T14:34:21.034Z,8.83
2018-12-12T14:36:47.718Z,9.90
2018-12-12T14:39:13.674Z,9.07
2018-12-12T14:41:39.661Z,8.60
2018-12-12T14:44:05.722Z,8.07
2018-12-12T14:46:31.711Z,7.10
2018-12-12T14:48:57.695Z,7.10
2018-12-12T14:51:23.692Z,7.40
2018-12-12T14:53:49.723Z,6.87
2018-12-12T14:56:15.716Z,7.73
2018-12-12T14:58:41.695Z,8.70
2018-12-12T15:01:07.730Z,7.07
2018-12-12T15:03:33.734Z,8.43
2018-12-12T15:05:59.749Z,7.60
2018-12-12T15:08:26.154Z,6.90
2018-12-12T15:10:52.134Z,7.10
2018-12-12T15:13:18.120Z,8.33
2018-12-12T15:15:44.210Z,8.23
2018-12-12T15:18:10.290Z,7.70
2018-12-12T15:20:36.263Z,7.53
2018-12-12T15:23:02.290Z,7.40
2018-12-12T15:25:28.287Z,8.50
2018-12-12T15:27:54.348Z,7.93
2018-12-12T15:30:20.329Z,9.43
2018-12-12T15:32:46.354Z,6.80
2018-12-12T15:35:12.375Z,8.80
2018-12-12T15:37:38.382Z,6.43
2018-12-12T15:40:04.367Z,7.40
2018-12-12T15:42:30.371Z,6.57
2018-12-12T15:44:56.376Z,7.23
2018-12-12T15:47:37.360Z,6.57
2018-12-12T15:50:03.338Z,8.00
2018-12-12T15:52:29.329Z,10.30
2018-12-12T15:54:55.342Z,9.37
2018-12-12T15:57:21.333Z,8.03
2018-12-12T15:59:47.306Z,8.60
2018-12-12T16:02:13.297Z,7.93
2018-12-12T16:04:39.283Z,8.60
2018-12-12T16:07:05.331Z,8.40
2018-12-12T16:09:31.314Z,7.47
2018-12-12T16:11:57.306Z,8.07
2018-12-12T16:14:23.325Z,7.33
2018-12-12T16:16:49.328Z,7.87
2018-12-12T16:19:15.342Z,8.37
2018-12-12T16:21:41.366Z,10.07
2018-12-12T16:24:07.360Z,8.27
2018-12-12T16:26:33.370Z,8.10
2018-12-12T16:28:59.367Z,9.00
2018-12-12T16:31:25.374Z,7.93
2018-12-12T16:33:51.368Z,7.27
2018-12-12T16:36:17.342Z,7.77
2018-12-12T16:38:43.340Z,6.93
2018-12-12T16:41:09.386Z,7.70
2018-12-12T16:43:35.410Z,8.27
2018-12-12T16:46:01.446Z,6.97
2018-12-12T16:48:27.423Z,7.07
2018-12-12T16:50:53.407Z,7.20
2018-12-12T16:53:19.615Z,6.97
2018-12-12T16:55:45.669Z,6.97
2018-12-12T16:58:11.671Z,10.07
2018-12-12T17:00:37.683Z,9.00
2018-12-12T17:03:03.706Z,9.13
2018-12-12T17:05:29.706Z,9.50
2018-12-12T17:07:55.832Z,9.60
2018-12-12T17:10:21.829Z,10.17
2018-12-12T17:12:47.817Z,10.33
2018-12-12T17:15:13.870Z,10.83
2018-12-12T17:17:39.874Z,12.50
2018-12-12T17:20:05.923Z,8.60
2018-12-12T17:22:31.945Z,8.67
2018-12-12T17:24:57.924Z,8.40
2018-12-12T17:27:23.961Z,8.70
2018-12-12T17:29:49.976Z,8.03
2018-12-12T17:32:15.982Z,9.20
2018-12-12T17:34:41.988Z,6.77
2018-12-12T17:37:08.010Z,8.60
2018-12-12T17:39:34.017Z,9.80
2018-12-12T17:42:00.019Z,10.70
2018-12-12T17:44:26.048Z,13.60
2018-12-12T17:46:52.094Z,8.00
2018-12-12T17:49:18.108Z,9.07
2018-12-12T17:51:44.125Z,8.17
2018-12-12T17:54:10.155Z,12.93
2018-12-12T17:56:36.233Z,8.90
2018-12-12T17:59:02.236Z,7.28
2018-12-12T18:01:28.264Z,6.95
2018-12-12T18:03:54.263Z,7.87
2018-12-12T18:06:20.253Z,8.17
2018-12-12T18:08:46.248Z,6.87
2018-12-12T18:11:12.347Z,8.40
2018-12-12T18:13:38.347Z,7.57
2018-12-12T18:16:04.355Z,7.53
2018-12-12T18:18:30.338Z,8.48
2018-12-12T18:20:56.435Z,9.33
2018-12-12T18:23:22.482Z,6.75
2018-12-12T18:25:48.478Z,5.82
2018-12-12T18:28:14.480Z,6.43
2018-12-12T18:30:40.475Z,5.68
2018-12-12T18:33:06.454Z,6.67
2018-12-12T18:35:32.466Z,7.50
2018-12-12T18:37:58.518Z,6.20
2018-12-12T18:40:24.506Z,6.85
2018-12-12T18:42:50.497Z,6.83
2018-12-12T18:45:16.522Z,7.23
2018-12-12T18:47:42.565Z,6.70
2018-12-12T18:50:08.630Z,6.40
2018-12-12T18:52:34.650Z,6.40
2018-12-12T18:55:00.742Z,6.07
2018-12-12T18:57:26.754Z,9.60
2018-12-12T18:59:53.038Z,8.65
2018-12-12T19:02:19.275Z,11.32
2018-12-12T19:04:45.772Z,9.73
2018-12-12T19:07:12.742Z,8.18
2018-12-12T19:09:38.758Z,9.80
2018-12-12T19:12:04.770Z,7.70
2018-12-12T19:14:30.765Z,8.52
2018-12-12T19:16:56.778Z,13.27
2018-12-12T19:19:22.771Z,16.40
2018-12-12T19:21:48.878Z,9.00
2018-12-12T19:24:14.895Z,9.35
2018-12-12T19:26:40.904Z,9.35
2018-12-12T19:29:06.936Z,12.15
2018-12-12T19:31:33.027Z,11.02
2018-12-12T19:33:59.112Z,8.20
2018-12-12T19:36:25.142Z,7.22
2018-12-12T19:38:51.146Z,7.00
2018-12-12T19:41:17.167Z,7.05
2018-12-12T19:43:43.227Z,7.20
2018-12-12T19:46:09.279Z,7.62
2018-12-12T19:48:35.278Z,7.80
2018-12-12T19:51:01.291Z,7.50
2018-12-12T19:53:28.847Z,7.90
2018-12-12T19:55:53.548Z,8.43
2018-12-12T19:58:20.254Z,8.20
2018-12-12T20:00:46.264Z,8.88
2018-12-12T20:03:12.348Z,8.60
2018-12-12T20:05:41.474Z,8.73
2018-12-12T20:08:04.438Z,5.47
2018-12-12T20:10:30.428Z,5.93
2018-12-12T20:12:56.455Z,6.90
2018-12-12T20:15:28.686Z,5.60
2018-12-12T20:17:54.694Z,4.75
2018-12-12T20:20:20.691Z,5.18
2018-12-12T20:22:46.695Z,5.05
2018-12-12T20:25:12.742Z,4.22
2018-12-12T20:27:38.748Z,5.00
2018-12-12T20:30:04.786Z,8.35
2018-12-12T20:32:30.781Z,12.20
2018-12-12T20:35:03.741Z,10.88
2018-12-12T20:37:29.745Z,9.20
2018-12-12T20:39:55.934Z,9.17
2018-12-12T20:42:22.096Z,8.57
2018-12-12T20:44:48.167Z,8.40
2018-12-12T20:47:14.302Z,8.25
2018-12-12T20:49:40.346Z,9.02
2018-12-12T20:52:06.492Z,7.55
2018-12-12T20:54:32.602Z,7.43
2018-12-12T20:56:58.736Z,7.50
2018-12-12T20:59:24.714Z,8.23
2018-12-12T21:01:50.779Z,8.80
2018-12-12T21:04:16.766Z,7.78
2018-12-12T21:06:42.794Z,7.07
2018-12-12T21:09:08.827Z,7.50
2018-12-12T21:11:34.846Z,7.97
2018-12-12T21:14:00.927Z,9.20
2018-12-12T21:16:27.030Z,8.52
2018-12-12T21:18:53.052Z,7.62
2018-12-12T21:21:19.084Z,8.47
2018-12-12T21:23:45.101Z,8.67
2018-12-12T21:26:11.116Z,8.65
2018-12-12T21:28:37.167Z,8.50
2018-12-12T21:31:03.210Z,8.00
2018-12-12T21:33:29.350Z,9.87
2018-12-12T21:36:00.740Z,9.27
2018-12-12T21:38:21.402Z,12.27
2018-12-12T21:40:47.795Z,8.63
2018-12-12T21:43:13.426Z,8.75
2018-12-12T21:45:39.412Z,7.70
2018-12-12T21:48:05.463Z,7.37
2018-12-12T21:50:31.470Z,7.85
2018-12-12T21:52:57.544Z,7.87
2018-12-12T21:55:23.546Z,7.70
2018-12-12T21:57:49.540Z,8.00
2018-12-12T22:00:15.715Z,8.40
2018-12-12T22:02:41.790Z,9.90
2018-12-12T22:05:17.818Z,10.93
2018-12-12T22:07:43.831Z,10.32
2018-12-12T22:10:09.835Z,8.93
2018-12-12T22:12:35.835Z,9.33
2018-12-12T22:15:01.998Z,9.25
2018-12-12T22:17:28.012Z,8.87
2018-12-12T22:19:54.017Z,10.10
2018-12-12T22:22:20.040Z,9.47
2018-12-12T22:24:46.064Z,8.52
2018-12-12T22:27:12.116Z,8.57
2018-12-12T22:29:38.117Z,7.90
2018-12-12T22:32:04.147Z,7.70
2018-12-12T22:34:30.143Z,7.20
2018-12-12T22:36:56.146Z,7.80
2018-12-12T22:39:22.306Z,7.93
2018-12-12T22:41:48.328Z,8.30
2018-12-12T22:44:14.353Z,7.95
2018-12-12T22:46:40.369Z,9.17
2018-12-12T22:49:06.382Z,10.25
2018-12-12T22:51:32.378Z,8.65
2018-12-12T22:53:58.437Z,8.25
2018-12-12T22:56:24.466Z,7.47
2018-12-12T22:58:50.511Z,8.40
2018-12-12T23:01:22.445Z,7.90
2018-12-12T23:03:48.451Z,8.63
2018-12-12T23:06:20.232Z,8.07
2018-12-12T23:08:40.463Z,7.97
2018-12-12T23:11:06.451Z,8.67
2018-12-12T23:13:32.510Z,7.07
2018-12-12T23:15:58.535Z,10.02
2018-12-12T23:18:24.567Z,9.18
2018-12-12T23:20:50.589Z,9.57
2018-12-12T23:23:16.598Z,11.05
2018-12-12T23:25:42.594Z,11.93
2018-12-12T23:28:08.600Z,11.40
2018-12-12T23:30:34.592Z,11.20
2018-12-12T23:33:00.598Z,15.52
2018-12-12T23:35:26.616Z,15.87
2018-12-12T23:37:52.615Z,16.17
2018-12-12T23:40:18.629Z,15.97
2018-12-12T23:42:44.790Z,14.45
2018-12-12T23:45:11.098Z,15.07
2018-12-12T23:47:37.143Z,12.88
2018-12-12T23:50:03.151Z,15.07
2018-12-12T23:52:29.188Z,13.65
2018-12-12T23:54:55.207Z,13.30
2018-12-12T23:57:21.219Z,12.17
2018-12-12T23:59:47.367Z,12.50
